Terminal Aerodrome Forecast
Issued by NWS Sterling, VA

Current Version | Previous Version | Graphics & Text | Print | Product List | Glossary On
Versions: 1 2 3 4 5 6 7 8 9 10 11 12 13
000
FTUS41 KLWX 180831 AAA
TAFMRB
TAF AMD
KMRB 180831Z 1809/1906 00000KT P6SM FEW025 SCT250
     FM181000 00000KT 3SM BR FEW025 SCT250
     FM181300 00000KT P6SM FEW030 SCT250
     FM181800 16004KT P6SM VCTS SCT060CB BKN250
     FM182300 15004KT P6SM FEW060 SCT250=

USA.gov is the U.S. government's official web portal to all federal, state and local government web resources and services.